Time;durP1;ratioP1;P1;durP2;ratioP2;P2;SDS_P1;SDS_P2;PMS_P1;PMS_P2;Temp;Humidity;BMP_temperature;BMP_pressure;BME280_temperature;BME280_humidity;BME280_pressure;Samples;Min_cycle;Max_cycle;Signal;HPM_P1;HPM_P2
2022/06/13 00:01:35;;;;;;;8.38;4.72;;;23.30;84.60;;;;;;5039431;28;20195;-76
2022/06/13 00:04:05;;;;;;;8.77;5.25;;;23.30;84.60;;;;;;5042514;28;20591;-78
2022/06/13 00:06:35;;;;;;;11.38;5.47;;;23.30;84.50;;;;;;5035032;28;20210;-77
2022/06/13 00:09:05;;;;;;;11.30;5.68;;;23.30;84.40;;;;;;5041387;28;20203;-76
2022/06/13 00:11:34;;;;;;;7.35;5.53;;;23.30;84.30;;;;;;5042290;28;20312;-76
2022/06/13 00:14:03;;;;;;;9.35;5.57;;;23.30;84.30;;;;;;5041732;28;20222;-76
2022/06/13 00:16:33;;;;;;;7.63;5.43;;;23.30;84.30;;;;;;5043069;28;20203;-76
2022/06/13 00:19:01;;;;;;;8.50;6.05;;;23.30;84.30;;;;;;5042075;28;20195;-75
2022/06/13 00:21:35;;;;;;;10.88;6.60;;;23.30;84.40;;;;;;5036303;28;20198;-76
2022/06/13 00:24:07;;;;;;;9.43;6.47;;;23.30;84.40;;;;;;5035046;28;20199;-76
2022/06/13 00:26:37;;;;;;;10.32;7.30;;;23.20;84.20;;;;;;5032447;28;20202;-76
2022/06/13 00:29:06;;;;;;;11.10;6.97;;;23.20;84.20;;;;;;5033470;28;20221;-77
2022/06/13 00:31:36;;;;;;;14.98;7.47;;;23.20;84.20;;;;;;5038366;28;20202;-76
2022/06/13 00:34:04;;;;;;;13.52;7.03;;;23.20;84.20;;;;;;5041751;28;20598;-77
2022/06/13 00:36:33;;;;;;;12.00;7.43;;;23.20;84.40;;;;;;5036125;28;20195;-76
2022/06/13 00:39:02;;;;;;;12.00;7.90;;;23.20;84.40;;;;;;5027999;28;20257;-77
2022/06/13 00:41:34;;;;;;;10.50;7.50;;;23.20;84.60;;;;;;5032622;28;20219;-77
2022/06/13 00:44:03;;;;;;;12.63;7.28;;;23.20;84.60;;;;;;5033696;28;20552;-76
2022/06/13 00:46:34;;;;;;;13.27;8.75;;;23.20;84.50;;;;;;5033229;28;20196;-78
2022/06/13 00:49:08;;;;;;;15.57;8.65;;;23.10;84.70;;;;;;5033117;28;20191;-77
2022/06/13 00:51:41;;;;;;;13.60;8.02;;;23.10;84.90;;;;;;5030250;28;20230;-76
2022/06/13 00:54:09;;;;;;;15.55;9.73;;;23.10;84.80;;;;;;5033793;28;20187;-77
2022/06/13 00:56:38;;;;;;;18.25;11.27;;;23.00;85.10;;;;;;5034873;28;20210;-78
2022/06/13 00:59:13;;;;;;;18.60;11.27;;;23.00;85.10;;;;;;5038151;28;20201;-77
2022/06/13 01:01:41;;;;;;;25.33;12.90;;;23.00;85.20;;;;;;5036898;28;20214;-77
2022/06/13 01:04:11;;;;;;;24.08;13.05;;;23.00;85.40;;;;;;5040235;28;20195;-77
2022/06/13 01:06:43;;;;;;;22.73;13.48;;;22.90;85.40;;;;;;5029455;28;20191;-78
2022/06/13 01:09:14;;;;;;;27.20;14.50;;;22.90;85.50;;;;;;5037990;28;20198;-77
2022/06/13 01:11:47;;;;;;;26.13;15.55;;;22.90;85.60;;;;;;5036890;28;20206;-76
2022/06/13 01:14:42;;;;;;;27.75;15.95;;;22.80;85.80;;;;;;5039592;28;20233;-77
2022/06/13 01:17:26;;;;;;;33.65;16.92;;;22.80;86.00;;;;;;5039587;28;20191;-77
2022/06/13 01:20:16;;;;;;;23.33;14.23;;;22.80;86.30;;;;;;5040447;28;20214;-75
2022/06/13 01:23:14;;;;;;;22.15;14.15;;;22.80;86.40;;;;;;5041271;28;20195;-77
2022/06/13 01:26:15;;;;;;;17.48;11.07;;;22.70;86.40;;;;;;5040443;28;20638;-77
2022/06/13 01:29:12;;;;;;;16.60;11.07;;;22.70;86.40;;;;;;5036139;28;20198;-75
2022/06/13 01:31:48;;;;;;;11.50;8.43;;;22.60;86.30;;;;;;5032698;28;20191;-75
2022/06/13 01:34:23;;;;;;;15.73;7.68;;;22.60;86.60;;;;;;5037588;28;20199;-75
2022/06/13 01:37:08;;;;;;;12.63;7.38;;;22.60;86.60;;;;;;5041270;28;20694;-75
2022/06/13 01:39:46;;;;;;;10.70;5.97;;;22.60;86.70;;;;;;5035760;28;20199;-75
2022/06/13 01:42:30;;;;;;;11.35;7.07;;;22.60;86.70;;;;;;5040173;28;20847;-76
2022/06/13 01:45:08;;;;;;;9.70;5.68;;;22.60;86.70;;;;;;5040378;28;20194;-76
2022/06/13 01:47:44;;;;;;;7.53;5.50;;;22.60;86.80;;;;;;5042481;28;20194;-76
2022/06/13 01:50:22;;;;;;;10.63;6.35;;;22.50;86.70;;;;;;5039221;28;20187;-76
2022/06/13 01:52:58;;;;;;;14.82;5.22;;;22.50;86.90;;;;;;5041592;28;20281;-76
2022/06/13 01:55:33;;;;;;;8.77;5.57;;;22.50;86.80;;;;;;5040023;28;20179;-76
2022/06/13 01:58:07;;;;;;;9.23;5.47;;;22.50;86.80;;;;;;5042764;28;20195;-76
2022/06/13 02:00:39;;;;;;;7.65;4.60;;;22.50;86.70;;;;;;5037697;28;20210;-75
2022/06/13 02:03:17;;;;;;;12.32;5.10;;;22.50;86.70;;;;;;5040735;28;20187;-75
2022/06/13 02:05:51;;;;;;;10.98;5.20;;;22.50;86.70;;;;;;5041847;28;20195;-76
2022/06/13 02:08:23;;;;;;;7.78;3.97;;;22.50;86.60;;;;;;5039008;28;20761;-75
2022/06/13 02:10:58;;;;;;;11.68;4.70;;;22.50;86.60;;;;;;5038730;28;20210;-75
2022/06/13 02:13:34;;;;;;;9.98;4.38;;;22.50;86.50;;;;;;5040253;28;20202;-74
2022/06/13 02:16:09;;;;;;;7.70;4.30;;;22.50;86.40;;;;;;5042599;28;20217;-76
2022/06/13 02:18:48;;;;;;;6.55;4.25;;;22.50;86.30;;;;;;5036798;28;20304;-76
2022/06/13 02:21:20;;;;;;;7.22;4.60;;;22.50;86.30;;;;;;5039055;28;21364;-75
2022/06/13 02:23:52;;;;;;;9.38;4.35;;;22.50;86.20;;;;;;5038568;28;20202;-75
2022/06/13 02:26:26;;;;;;;9.80;4.13;;;22.50;86.20;;;;;;5035941;28;20595;-76
2022/06/13 02:28:58;;;;;;;8.10;3.75;;;22.50;86.20;;;;;;5037633;28;20197;-75
2022/06/13 02:31:33;;;;;;;5.30;3.72;;;22.50;86.10;;;;;;5038478;28;20214;-75
2022/06/13 02:34:09;;;;;;;7.03;3.92;;;22.40;86.10;;;;;;5041825;28;20190;-75
2022/06/13 02:36:42;;;;;;;6.53;4.30;;;22.40;86.10;;;;;;5039882;28;20609;-76
2022/06/13 02:39:16;;;;;;;8.38;3.97;;;22.40;86.10;;;;;;5039656;28;20191;-76
2022/06/13 02:41:50;;;;;;;9.65;4.00;;;22.40;86.10;;;;;;5034488;28;20726;-77
2022/06/13 02:44:25;;;;;;;6.50;3.67;;;22.40;86.10;;;;;;5035272;28;21522;-76
2022/06/13 02:46:57;;;;;;;6.85;3.90;;;22.40;86.10;;;;;;5041886;28;20195;-76
2022/06/13 02:49:33;;;;;;;9.00;3.78;;;22.40;86.00;;;;;;5039509;28;20825;-75
2022/06/13 02:52:09;;;;;;;7.85;4.07;;;22.40;86.00;;;;;;5040859;28;20194;-75
2022/06/13 02:54:47;;;;;;;6.22;4.03;;;22.40;86.00;;;;;;5039671;28;20194;-75
2022/06/13 02:57:41;;;;;;;5.72;3.85;;;22.40;85.80;;;;;;5037755;28;20186;-76
2022/06/13 03:00:19;;;;;;;8.52;4.30;;;22.40;85.80;;;;;;5034347;28;20194;-77
2022/06/13 03:02:58;;;;;;;11.95;4.07;;;22.40;85.60;;;;;;5037082;28;20203;-75
2022/06/13 03:05:50;;;;;;;6.95;4.40;;;22.40;85.60;;;;;;5036839;28;20838;-75
2022/06/13 03:08:44;;;;;;;6.32;4.00;;;22.40;85.50;;;;;;5038929;28;20187;-76
2022/06/13 03:11:45;;;;;;;9.93;4.22;;;22.40;85.70;;;;;;5035433;28;20188;-76
2022/06/13 03:14:28;;;;;;;8.27;4.35;;;22.40;85.70;;;;;;5034931;28;20227;-76
2022/06/13 03:17:01;;;;;;;6.70;4.53;;;22.40;85.60;;;;;;5040696;28;20191;-75
2022/06/13 03:19:37;;;;;;;8.25;4.15;;;22.40;85.60;;;;;;5040910;28;20194;-75
2022/06/13 03:22:11;;;;;;;5.25;4.07;;;22.40;85.60;;;;;;5038969;28;20207;-76
2022/06/13 03:24:49;;;;;;;5.82;3.88;;;22.40;85.50;;;;;;5032159;28;20199;-76
2022/06/13 03:27:24;;;;;;;5.90;4.43;;;22.40;85.50;;;;;;5034355;28;20199;-76
2022/06/13 03:29:57;;;;;;;9.57;3.80;;;22.40;85.40;;;;;;5034630;28;20187;-75
2022/06/13 03:32:30;;;;;;;6.00;3.75;;;22.40;85.30;;;;;;5041208;28;20870;-75
2022/06/13 03:35:01;;;;;;;9.75;4.20;;;22.40;85.20;;;;;;5040964;28;20179;-76
2022/06/13 03:37:36;;;;;;;6.38;4.10;;;22.40;85.10;;;;;;5044686;28;20206;-75
2022/06/13 03:40:09;;;;;;;8.93;3.97;;;22.40;85.10;;;;;;5044413;28;20205;-76
2022/06/13 03:42:42;;;;;;;5.55;4.10;;;22.40;85.10;;;;;;5043130;28;20211;-75
2022/06/13 03:45:17;;;;;;;8.13;3.72;;;22.40;85.10;;;;;;5038711;28;20191;-75
2022/06/13 03:47:50;;;;;;;10.18;5.00;;;22.40;85.10;;;;;;5040220;28;20190;-75
2022/06/13 03:50:25;;;;;;;6.80;4.25;;;22.40;85.00;;;;;;5045563;28;20188;-75
2022/06/13 03:53:02;;;;;;;7.85;4.43;;;22.40;85.00;;;;;;5043200;28;20198;-75
2022/06/13 03:55:36;;;;;;;5.47;4.20;;;22.40;85.10;;;;;;5042802;28;20190;-75
2022/06/13 03:58:10;;;;;;;7.30;4.32;;;22.40;85.10;;;;;;5037647;28;20218;-75
2022/06/13 04:00:42;;;;;;;9.55;4.80;;;22.40;85.10;;;;;;5039941;28;20195;-75
2022/06/13 04:03:11;;;;;;;6.95;5.22;;;22.40;85.10;;;;;;5042134;28;20229;-76
2022/06/13 04:05:43;;;;;;;8.32;4.70;;;22.40;85.00;;;;;;5045347;28;20195;-75
2022/06/13 04:08:14;;;;;;;9.35;4.22;;;22.50;85.00;;;;;;5037883;28;20199;-75
2022/06/13 04:10:57;;;;;;;8.60;5.03;;;22.40;85.10;;;;;;5040829;28;20195;-75
2022/06/13 04:13:39;;;;;;;7.45;4.97;;;22.40;85.20;;;;;;5040172;28;20191;-76
2022/06/13 04:16:33;;;;;;;7.30;4.88;;;22.50;85.20;;;;;;5039013;28;20622;-75
2022/06/13 04:19:19;;;;;;;8.75;4.38;;;22.40;85.20;;;;;;5038799;28;20195;-75
2022/06/13 04:21:55;;;;;;;9.73;4.65;;;22.40;85.20;;;;;;5039705;28;20210;-75
2022/06/13 04:24:37;;;;;;;11.73;5.20;;;22.50;85.40;;;;;;5042208;28;20194;-78
2022/06/13 04:27:12;;;;;;;8.60;4.75;;;22.40;85.50;;;;;;5038576;28;20214;-76
2022/06/13 04:29:48;;;;;;;7.88;5.18;;;22.40;85.60;;;;;;5035214;28;20660;-76
2022/06/13 04:32:35;;;;;;;8.77;5.00;;;22.40;85.70;;;;;;5042062;28;20201;-75
2022/06/13 04:35:05;;;;;;;7.43;5.57;;;22.40;85.80;;;;;;5043600;28;20194;-75
2022/06/13 04:37:34;;;;;;;10.13;6.05;;;22.50;85.90;;;;;;5041524;28;20195;-75
2022/06/13 04:40:08;;;;;;;7.97;5.40;;;22.50;86.00;;;;;;5034832;28;20210;-75
2022/06/13 04:42:40;;;;;;;11.18;5.15;;;22.50;86.00;;;;;;5041402;28;20210;-76
2022/06/13 04:45:19;;;;;;;12.35;5.40;;;22.50;86.00;;;;;;5037637;28;20196;-75
2022/06/13 04:47:49;;;;;;;7.45;5.07;;;22.60;86.00;;;;;;5040557;28;20191;-75
2022/06/13 04:50:24;;;;;;;6.93;4.63;;;22.60;86.00;;;;;;5037169;28;20214;-75
2022/06/13 04:52:55;;;;;;;7.65;4.90;;;22.70;86.00;;;;;;5042412;28;20867;-75
2022/06/13 04:55:29;;;;;;;7.35;4.95;;;22.70;86.10;;;;;;5037458;28;20191;-75
2022/06/13 04:57:59;;;;;;;12.55;4.75;;;22.80;86.10;;;;;;5039034;28;20191;-75
2022/06/13 05:00:28;;;;;;;10.77;5.15;;;22.80;86.10;;;;;;5038731;28;20192;-75
2022/06/13 05:02:58;;;;;;;6.90;4.95;;;22.90;86.20;;;;;;5037031;28;20224;-76
2022/06/13 05:05:37;;;;;;;8.23;5.07;;;23.00;86.10;;;;;;5046226;28;20191;-75
2022/06/13 05:08:13;;;;;;;9.25;5.85;;;23.00;86.00;;;;;;5041188;28;20191;-75
2022/06/13 05:10:48;;;;;;;9.45;4.75;;;23.10;86.00;;;;;;5042165;28;20187;-75
2022/06/13 05:13:16;;;;;;;8.60;4.85;;;23.20;86.00;;;;;;5040995;28;20195;-75
2022/06/13 05:15:53;;;;;;;8.48;5.32;;;23.20;86.00;;;;;;5050260;28;20192;-75
2022/06/13 05:19:01;;;;;;;9.45;4.80;;;23.30;86.10;;;;;;5042206;28;20270;-74
2022/06/13 05:21:43;;;;;;;7.70;4.97;;;23.40;86.00;;;;;;5045463;28;20187;-75
2022/06/13 05:24:28;;;;;;;8.00;5.03;;;23.50;86.00;;;;;;5042256;28;20187;-75
2022/06/13 05:26:58;;;;;;;7.07;4.72;;;23.60;85.60;;;;;;5047973;28;20183;-77
2022/06/13 05:29:28;;;;;;;6.35;4.47;;;23.70;85.50;;;;;;5042078;28;20676;-74
2022/06/13 05:31:56;;;;;;;8.40;4.88;;;23.80;85.20;;;;;;5041606;28;20194;-76
2022/06/13 05:34:33;;;;;;;8.52;5.35;;;23.90;85.00;;;;;;5041551;28;20192;-75
2022/06/13 05:37:02;;;;;;;6.47;4.63;;;24.00;84.80;;;;;;5042242;28;20184;-78
2022/06/13 05:39:31;;;;;;;7.93;4.07;;;24.10;84.70;;;;;;5037963;28;20199;-75
2022/06/13 05:42:01;;;;;;;7.05;4.85;;;24.20;84.40;;;;;;5040040;28;20198;-74
2022/06/13 05:44:29;;;;;;;7.15;4.15;;;24.30;84.20;;;;;;5040261;28;20568;-76
2022/06/13 05:46:58;;;;;;;8.05;4.18;;;24.40;84.20;;;;;;5041138;28;20195;-74
2022/06/13 05:49:26;;;;;;;7.25;3.58;;;24.50;84.00;;;;;;5038127;28;20557;-75
2022/06/13 05:51:55;;;;;;;4.93;3.72;;;24.60;83.40;;;;;;5039885;28;20204;-75
2022/06/13 05:54:23;;;;;;;4.63;3.60;;;24.70;83.00;;;;;;5041060;28;20191;-75
2022/06/13 05:56:52;;;;;;;7.00;3.25;;;24.80;82.50;;;;;;5037649;28;20195;-76
2022/06/13 05:59:21;;;;;;;7.47;3.45;;;24.80;81.80;;;;;;5041546;28;20579;-75
2022/06/13 06:01:50;;;;;;;5.65;3.67;;;24.90;81.00;;;;;;5039294;28;20226;-75
2022/06/13 06:04:18;;;;;;;5.43;3.95;;;25.00;80.50;;;;;;5039173;28;20226;-75
2022/06/13 06:06:47;;;;;;;5.65;3.50;;;25.10;79.90;;;;;;5044367;28;20198;-75
2022/06/13 06:09:15;;;;;;;4.88;3.33;;;25.20;80.00;;;;;;5039525;28;20206;-76
2022/06/13 06:11:44;;;;;;;7.15;3.35;;;25.30;78.90;;;;;;5044199;28;20650;-75
2022/06/13 06:14:12;;;;;;;7.95;4.15;;;25.40;78.10;;;;;;5029187;28;20248;-76
2022/06/13 06:16:42;;;;;;;7.18;3.38;;;25.50;78.30;;;;;;5021245;28;20309;-77
2022/06/13 06:19:11;;;;;;;5.05;3.40;;;25.50;77.70;;;;;;5017062;28;20198;-76
2022/06/13 06:21:39;;;;;;;6.15;3.10;;;25.60;77.00;;;;;;5017871;28;20855;-74
2022/06/13 06:24:08;;;;;;;4.80;3.03;;;25.70;76.10;;;;;;5020281;28;20218;-75
2022/06/13 06:26:36;;;;;;;4.72;2.95;;;25.80;76.20;;;;;;5022250;28;20207;-75
2022/06/13 06:29:05;;;;;;;7.28;3.78;;;25.90;75.70;;;;;;5023018;28;20196;-75
2022/06/13 06:31:33;;;;;;;7.03;3.13;;;25.90;75.30;;;;;;5023114;28;20202;-75
2022/06/13 06:34:03;;;;;;;8.02;3.47;;;26.00;75.40;;;;;;5020606;28;20192;-76
2022/06/13 06:36:32;;;;;;;4.97;2.90;;;26.10;75.50;;;;;;5023479;28;20196;-78
2022/06/13 06:39:00;;;;;;;3.38;2.47;;;26.20;72.90;;;;;;5021808;28;20195;-76
2022/06/13 06:41:28;;;;;;;5.57;2.78;;;26.30;73.30;;;;;;5022068;28;20270;-76
2022/06/13 06:43:57;;;;;;;4.47;3.13;;;26.30;72.40;;;;;;5022228;28;20208;-79
2022/06/13 06:46:25;;;;;;;6.22;2.92;;;26.40;72.70;;;;;;5014965;28;20188;-77
2022/06/13 06:48:54;;;;;;;3.70;3.28;;;26.50;72.90;;;;;;5018279;28;20196;-76
2022/06/13 06:51:29;;;;;;;3.95;2.75;;;26.60;72.50;;;;;;5019389;28;20205;-78
2022/06/13 07:02:14;;;;;;;6.20;3.67;;;26.80;71.90;;;;;;5013744;28;20192;-76
2022/06/13 07:04:43;;;;;;;4.78;3.45;;;26.90;71.60;;;;;;5022565;28;20223;-77
2022/06/13 07:07:13;;;;;;;6.07;3.00;;;26.90;72.80;;;;;;5022184;28;20657;-75
2022/06/13 07:09:41;;;;;;;5.68;3.03;;;27.00;72.00;;;;;;5027583;28;20208;-77
2022/06/13 07:12:11;;;;;;;5.47;3.17;;;27.10;72.10;;;;;;5026059;28;20204;-76
2022/06/13 07:14:39;;;;;;;5.90;2.88;;;27.10;71.00;;;;;;5023149;28;20269;-75
2022/06/13 07:17:09;;;;;;;4.18;2.90;;;27.20;70.60;;;;;;5024029;28;20207;-76
2022/06/13 07:19:39;;;;;;;3.22;2.75;;;27.20;70.80;;;;;;5022086;28;20192;-75
2022/06/13 07:22:08;;;;;;;4.93;3.20;;;27.30;70.00;;;;;;5026341;28;20203;-76
2022/06/13 07:24:38;;;;;;;6.05;2.63;;;27.30;69.40;;;;;;5021294;28;20230;-75
2022/06/13 07:27:07;;;;;;;4.70;3.05;;;27.30;69.10;;;;;;5025528;28;20249;-77
2022/06/13 07:29:35;;;;;;;6.72;3.00;;;27.30;69.20;;;;;;5019390;28;20187;-78
2022/06/13 07:32:07;;;;;;;4.00;2.92;;;27.40;69.10;;;;;;5020895;28;20192;-76
2022/06/13 07:34:37;;;;;;;6.03;2.65;;;27.40;69.10;;;;;;5007523;28;20207;-76
2022/06/13 07:37:08;;;;;;;6.75;2.90;;;27.50;69.60;;;;;;5018324;28;20200;-76
2022/06/13 07:39:37;;;;;;;5.28;3.05;;;27.60;69.90;;;;;;5023686;28;20626;-75
2022/06/13 07:42:13;;;;;;;7.50;3.30;;;27.60;69.30;;;;;;5019011;28;20219;-77
2022/06/13 07:44:42;;;;;;;7.43;3.13;;;27.70;69.10;;;;;;5022126;28;20212;-78
2022/06/13 07:47:16;;;;;;;4.45;3.20;;;27.70;68.60;;;;;;5020712;28;20195;-76
2022/06/13 07:49:44;;;;;;;3.47;2.85;;;27.70;68.10;;;;;;5026643;28;20221;-75
2022/06/13 07:52:12;;;;;;;5.55;2.97;;;27.80;67.90;;;;;;5022458;28;20200;-76
2022/06/13 07:54:43;;;;;;;7.10;3.58;;;27.80;68.30;;;;;;5025485;28;20856;-77
2022/06/13 07:57:12;;;;;;;8.32;2.88;;;27.90;68.30;;;;;;5023074;28;20206;-77
2022/06/13 07:59:42;;;;;;;4.57;3.25;;;27.90;68.60;;;;;;5021141;28;20192;-79
2022/06/13 08:02:16;;;;;;;4.43;3.00;;;28.00;68.40;;;;;;5022260;28;20275;-78
2022/06/13 08:04:45;;;;;;;4.07;3.15;;;28.00;68.20;;;;;;5026165;28;20207;-81
2022/06/13 08:07:28;;;;;;;4.68;3.38;;;28.00;67.50;;;;;;5023708;28;20534;-78
2022/06/13 08:09:58;;;;;;;4.07;3.03;;;28.10;67.70;;;;;;5022834;28;20195;-79
2022/06/13 08:12:28;;;;;;;6.38;3.20;;;28.10;67.80;;;;;;5025294;28;20204;-78
2022/06/13 08:15:05;;;;;;;5.40;3.05;;;28.10;67.80;;;;;;5020579;28;20881;-79
2022/06/13 08:17:34;;;;;;;3.65;2.80;;;28.20;67.70;;;;;;5019096;28;20834;-78
2022/06/13 08:20:04;;;;;;;4.25;3.08;;;28.20;67.50;;;;;;5019656;28;20200;-79
2022/06/13 08:22:33;;;;;;;5.88;3.30;;;28.30;67.80;;;;;;5021109;28;20646;-78
2022/06/13 08:25:18;;;;;;;4.70;3.35;;;28.30;68.00;;;;;;5021571;28;20254;-79
2022/06/13 08:27:47;;;;;;;4.90;3.15;;;28.40;67.30;;;;;;5023886;28;20551;-77
2022/06/13 08:30:16;;;;;;;4.68;3.33;;;28.40;67.30;;;;;;5025787;28;20196;-79
2022/06/13 08:32:44;;;;;;;4.68;3.22;;;28.50;66.40;;;;;;5027334;28;20206;-78
2022/06/13 08:35:14;;;;;;;3.97;2.88;;;28.60;66.90;;;;;;5026644;28;20196;-79
2022/06/13 08:37:42;;;;;;;8.13;3.65;;;28.60;66.90;;;;;;5026278;28;20203;-79
2022/06/13 08:40:13;;;;;;;5.32;3.28;;;28.70;67.00;;;;;;5026283;28;20200;-78
2022/06/13 08:42:47;;;;;;;5.05;3.50;;;28.70;66.90;;;;;;5025765;28;20203;-81
2022/06/13 08:45:23;;;;;;;6.70;3.78;;;28.80;66.80;;;;;;5026085;28;20717;-77
2022/06/13 08:47:57;;;;;;;6.68;4.07;;;28.80;67.40;;;;;;5026378;28;20199;-78
2022/06/13 08:50:37;;;;;;;6.18;4.03;;;28.90;67.80;;;;;;5026996;28;20198;-78
2022/06/13 08:53:11;;;;;;;5.78;3.67;;;28.90;67.00;;;;;;5023226;28;20191;-77
2022/06/13 08:55:47;;;;;;;5.05;3.38;;;28.90;67.40;;;;;;5026146;28;20731;-80
2022/06/13 08:58:23;;;;;;;6.07;4.15;;;29.00;67.70;;;;;;5025382;28;20601;-78
2022/06/13 09:00:56;;;;;;;7.68;4.18;;;29.00;67.70;;;;;;5024548;28;20206;-80
2022/06/13 09:03:30;;;;;;;7.65;3.90;;;29.00;68.00;;;;;;5021735;28;20208;-79
2022/06/13 09:06:03;;;;;;;4.63;3.60;;;29.00;67.80;;;;;;5026246;28;20276;-78
2022/06/13 09:08:39;;;;;;;6.28;3.47;;;29.10;67.20;;;;;;5024634;28;20192;-78
2022/06/13 09:11:16;;;;;;;5.45;3.53;;;29.20;67.30;;;;;;5024822;28;20211;-78
2022/06/13 09:13:50;;;;;;;5.80;3.75;;;29.20;67.20;;;;;;5023460;28;20230;-79
2022/06/13 09:16:25;;;;;;;6.90;4.40;;;29.30;67.30;;;;;;5024875;28;20192;-78
2022/06/13 09:19:01;;;;;;;5.82;3.70;;;29.30;67.70;;;;;;5026204;28;20196;-78
2022/06/13 09:21:35;;;;;;;4.68;3.67;;;29.40;67.20;;;;;;5016578;28;20231;-77
2022/06/13 09:24:09;;;;;;;6.63;3.55;;;29.40;66.80;;;;;;5025439;28;20265;-78
2022/06/13 09:26:47;;;;;;;6.13;4.28;;;29.50;67.10;;;;;;5024731;28;20288;-78
2022/06/13 09:29:23;;;;;;;5.55;3.60;;;29.50;67.10;;;;;;5023697;28;20282;-78
2022/06/13 09:31:56;;;;;;;8.98;4.03;;;29.60;66.60;;;;;;5017058;28;20227;-78
2022/06/13 09:34:34;;;;;;;5.00;3.50;;;29.60;66.80;;;;;;5025063;28;20195;-79
2022/06/13 09:37:08;;;;;;;5.38;4.00;;;29.70;67.00;;;;;;5025636;28;20218;-78
2022/06/13 09:39:37;;;;;;;7.15;3.55;;;29.70;66.70;;;;;;5019974;28;20677;-76
2022/06/13 09:42:30;;;;;;;4.85;3.47;;;29.70;66.80;;;;;;5023438;28;20617;-78
2022/06/13 09:45:30;;;;;;;8.27;3.50;;;29.80;66.60;;;;;;5011859;28;20212;-77
2022/06/13 09:48:09;;;;;;;4.93;3.80;;;29.80;67.00;;;;;;5019812;28;20225;-77
2022/06/13 09:50:45;;;;;;;4.60;3.45;;;29.90;65.90;;;;;;5024059;28;20200;-77
2022/06/13 09:53:22;;;;;;;4.63;3.60;;;29.90;65.60;;;;;;5024774;28;20194;-78
2022/06/13 09:55:59;;;;;;;7.15;3.67;;;29.90;65.50;;;;;;5023753;28;20203;-78
2022/06/13 09:58:42;;;;;;;11.48;3.78;;;30.00;65.80;;;;;;5010077;28;20199;-78
2022/06/13 10:01:18;;;;;;;6.47;3.40;;;30.00;66.30;;;;;;5022655;28;20188;-79
2022/06/13 10:03:54;;;;;;;6.57;4.57;;;30.10;65.80;;;;;;5024105;28;20196;-77
2022/06/13 10:06:37;;;;;;;9.57;3.40;;;30.00;65.40;;;;;;5010311;28;20218;-76
2022/06/13 10:09:17;;;;;;;7.28;3.90;;;30.00;65.10;;;;;;5021287;28;20188;-79
2022/06/13 10:11:57;;;;;;;7.65;3.92;;;30.00;64.50;;;;;;5012649;28;20199;-78
2022/06/13 10:15:02;;;;;;;7.47;3.72;;;29.90;64.30;;;;;;5011075;28;20231;-78
2022/06/13 10:17:53;;;;;;;7.90;3.95;;;30.00;64.10;;;;;;5025208;28;20192;-77
2022/06/13 10:20:35;;;;;;;5.43;3.67;;;30.00;64.40;;;;;;5011137;28;20289;-77
2022/06/13 10:23:13;;;;;;;6.50;3.55;;;30.10;64.30;;;;;;5023678;28;20188;-77
2022/06/13 10:26:05;;;;;;;6.75;3.67;;;30.10;64.40;;;;;;5024316;28;20250;-79
2022/06/13 10:28:53;;;;;;;5.40;3.50;;;30.20;65.00;;;;;;5014546;28;20195;-76
2022/06/13 10:31:37;;;;;;;8.43;4.07;;;30.20;64.20;;;;;;5025140;28;20200;-79
2022/06/13 10:34:18;;;;;;;7.75;3.80;;;30.20;64.30;;;;;;5022446;28;20280;-76
2022/06/13 10:36:55;;;;;;;10.88;3.92;;;30.30;64.90;;;;;;5023601;28;20210;-79
2022/06/13 10:39:26;;;;;;;7.18;3.38;;;30.30;65.00;;;;;;5024073;28;20207;-79
2022/06/13 10:42:01;;;;;;;7.97;3.53;;;30.40;64.70;;;;;;5027609;28;20276;-78
2022/06/13 10:44:30;;;;;;;5.47;3.78;;;30.40;64.30;;;;;;5019694;28;20629;-78
2022/06/13 10:47:08;;;;;;;5.13;3.85;;;30.50;64.20;;;;;;5028878;28;20195;-77
2022/06/13 10:49:43;;;;;;;5.03;3.80;;;30.50;64.20;;;;;;5013922;28;20195;-79
2022/06/13 10:52:16;;;;;;;4.95;3.75;;;30.50;63.50;;;;;;5028163;28;20225;-79
2022/06/13 10:54:49;;;;;;;7.97;4.45;;;30.60;63.70;;;;;;5027869;28;20198;-78
2022/06/13 10:57:23;;;;;;;8.40;3.53;;;30.60;63.30;;;;;;5027641;28;20203;-78
2022/06/13 11:00:14;;;;;;;4.88;3.80;;;30.70;63.60;;;;;;5028964;28;20191;-80
2022/06/13 11:02:44;;;;;;;5.82;3.78;;;30.70;62.50;;;;;;5026337;28;20207;-76
2022/06/13 11:05:16;;;;;;;12.02;4.20;;;30.80;62.70;;;;;;5027440;28;20219;-76
2022/06/13 11:07:52;;;;;;;4.63;3.83;;;30.80;62.70;;;;;;5028037;28;20637;-80
2022/06/13 11:10:35;;;;;;;5.60;3.72;;;30.90;62.70;;;;;;5022586;28;20195;-76
2022/06/13 11:13:05;;;;;;;6.10;3.80;;;31.00;62.90;;;;;;5020981;28;20242;-78
2022/06/13 11:24:18;;;;;;;7.00;3.80;;;31.20;61.20;;;;;;5021454;28;20767;-78
2022/06/13 11:29:35;;;;;;;7.28;4.63;;;31.30;60.60;;;;;;5024962;28;20802;-78
2022/06/13 11:32:07;;;;;;;6.15;3.90;;;31.30;60.00;;;;;;5027804;28;20204;-79
2022/06/13 11:34:39;;;;;;;5.70;3.85;;;31.30;60.10;;;;;;5022990;28;20195;-82
2022/06/13 11:37:19;;;;;;;4.20;3.50;;;31.20;60.00;;;;;;5027805;28;20184;-79
2022/06/13 11:39:49;;;;;;;8.43;3.42;;;31.20;60.10;;;;;;5024422;28;20555;-77
2022/06/13 11:42:20;;;;;;;5.38;3.85;;;31.10;60.20;;;;;;5027545;28;20192;-78
2022/06/13 11:44:52;;;;;;;7.38;4.03;;;31.10;61.20;;;;;;5025549;28;20633;-79
2022/06/13 11:47:22;;;;;;;6.13;4.20;;;31.00;60.10;;;;;;5022921;28;20199;-79
2022/06/13 11:49:55;;;;;;;6.03;3.80;;;30.90;60.30;;;;;;5025165;28;20724;-78
2022/06/13 11:55:29;;;;;;;5.47;4.00;;;30.70;60.30;;;;;;5018715;28;20218;-79
2022/06/13 11:58:00;;;;;;;5.90;3.92;;;30.70;60.60;;;;;;5024980;28;20199;-79
2022/06/13 12:00:36;;;;;;;4.85;3.83;;;30.60;60.70;;;;;;5023377;28;20222;-77
2022/06/13 12:03:23;;;;;;;12.70;4.20;;;30.50;60.90;;;;;;5027857;28;20198;-77
2022/06/13 12:06:00;;;;;;;6.47;4.50;;;30.50;61.00;;;;;;5019552;28;20239;-77
2022/06/13 12:08:30;;;;;;;7.07;4.43;;;30.40;61.10;;;;;;5021486;28;20515;-76
2022/06/13 12:11:22;;;;;;;5.10;3.80;;;30.30;61.00;;;;;;5027651;28;20184;-79
2022/06/13 12:13:52;;;;;;;5.65;4.03;;;30.30;61.20;;;;;;5026996;28;20216;-78
2022/06/13 12:16:35;;;;;;;8.20;4.22;;;30.20;61.40;;;;;;5025617;28;20188;-76
2022/06/13 12:19:16;;;;;;;8.63;4.55;;;30.10;61.80;;;;;;5024483;28;20202;-77
2022/06/13 12:21:50;;;;;;;5.05;3.97;;;30.00;62.20;;;;;;5023682;28;20195;-78
2022/06/13 12:24:23;;;;;;;11.20;4.10;;;29.90;62.90;;;;;;5020856;28;20192;-78
2022/06/13 12:27:01;;;;;;;12.05;6.75;;;29.90;62.30;;;;;;5022307;28;20219;-77
2022/06/13 12:29:58;;;;;;;10.20;6.55;;;29.80;62.70;;;;;;5022854;28;20741;-78
2022/06/13 12:32:31;;;;;;;9.07;5.95;;;29.70;62.90;;;;;;5020598;28;20196;-77
2022/06/13 12:35:20;;;;;;;7.38;5.07;;;29.70;63.00;;;;;;5022647;28;20682;-77
2022/06/13 12:38:01;;;;;;;7.53;4.30;;;29.60;63.40;;;;;;5020951;28;20643;-77
2022/06/13 12:40:43;;;;;;;10.50;4.75;;;29.50;63.80;;;;;;5019461;28;20562;-77
2022/06/13 12:43:42;;;;;;;6.15;3.95;;;29.50;64.10;;;;;;5016542;28;20203;-75
2022/06/13 12:46:31;;;;;;;17.00;10.50;;;29.40;64.30;;;;;;5021771;28;20225;-76
2022/06/13 12:49:22;;;;;;;37.38;17.10;;;29.30;64.50;;;;;;5018922;28;20241;-77
2022/06/13 12:51:58;;;;;;;19.40;8.55;;;29.30;64.60;;;;;;5015234;28;20192;-76
2022/06/13 12:54:53;;;;;;;9.50;5.25;;;29.20;65.60;;;;;;5020241;28;20194;-77
2022/06/13 12:57:36;;;;;;;6.25;3.80;;;29.10;65.00;;;;;;5023181;28;20196;-76
2022/06/13 13:00:14;;;;;;;7.35;4.45;;;29.10;65.10;;;;;;5021446;28;20575;-76
2022/06/13 13:03:06;;;;;;;7.60;4.70;;;29.00;65.20;;;;;;5017015;28;20192;-75
2022/06/13 13:05:44;;;;;;;11.90;6.43;;;29.00;65.50;;;;;;5022120;28;20191;-76
2022/06/13 13:08:25;;;;;;;16.05;7.65;;;28.90;65.70;;;;;;5024611;28;20215;-75
2022/06/13 13:11:20;;;;;;;22.40;11.52;;;28.90;65.80;;;;;;5021635;28;20191;-76
2022/06/13 13:13:54;;;;;;;16.02;8.95;;;28.90;66.00;;;;;;5018265;28;20230;-75
2022/06/13 13:16:35;;;;;;;18.80;8.90;;;28.90;66.20;;;;;;5025674;28;20197;-76
2022/06/13 13:19:30;;;;;;;8.93;5.35;;;28.90;66.80;;;;;;5010262;28;20610;-76
2022/06/13 13:22:06;;;;;;;9.20;4.82;;;29.00;67.50;;;;;;5016363;28;20725;-75
2022/06/13 13:24:49;;;;;;;6.00;4.72;;;29.30;68.30;;;;;;5024359;28;20230;-76
2022/06/13 13:27:20;;;;;;;6.75;4.57;;;29.60;68.40;;;;;;5019811;28;20239;-76
2022/06/13 13:30:02;;;;;;;8.82;4.38;;;30.00;67.90;;;;;;5016246;28;20231;-78
2022/06/13 13:32:41;;;;;;;7.75;4.65;;;30.30;66.90;;;;;;5018756;28;20217;-77
2022/06/13 13:35:19;;;;;;;8.48;4.30;;;30.50;66.40;;;;;;5020830;28;20183;-78
2022/06/13 13:37:51;;;;;;;5.80;4.10;;;30.60;65.70;;;;;;5021753;28;20194;-78
2022/06/13 13:40:29;;;;;;;5.32;4.00;;;30.70;64.90;;;;;;5023720;28;20660;-78
2022/06/13 13:43:05;;;;;;;10.60;4.32;;;30.80;63.90;;;;;;5025123;28;20202;-78
2022/06/13 13:45:40;;;;;;;7.18;3.97;;;30.80;63.50;;;;;;5025605;28;20295;-77
2022/06/13 13:48:20;;;;;;;6.72;4.05;;;30.90;62.70;;;;;;5018433;28;20245;-80